Time;durP1;ratioP1;P1;durP2;ratioP2;P2;SDS_P1;SDS_P2;PMS_P1;PMS_P2;Temp;Humidity;BMP_temperature;BMP_pressure;BME280_temperature;BME280_humidity;BME280_pressure;Samples;Min_cycle;Max_cycle;Signal;HPM_P1;HPM_P2
2022/03/13 00:02:16;;;;;;;16.10;10.38;;;;;;;10.37;60.42;101466.59;5042796;28;20283;-78
2022/03/13 00:04:44;;;;;;;15.00;9.65;;;;;;;10.32;60.43;101465.53;5045485;28;20224;-78
2022/03/13 00:07:14;;;;;;;15.73;9.70;;;;;;;10.31;60.29;101471.56;5045817;28;20268;-78
2022/03/13 00:09:39;;;;;;;;;;;;;;;10.34;60.00;101467.38;5046147;28;20287;-78
2022/03/13 00:12:07;;;;;;;14.87;9.03;;;;;;;10.30;60.74;101470.69;5044235;28;19897;-78
2022/03/13 00:14:34;;;;;;;14.02;8.55;;;;;;;10.30;60.83;101469.78;5043461;28;20485;-78
2022/03/13 00:17:00;;;;;;;13.43;8.40;;;;;;;10.28;61.42;101467.13;5044863;28;20330;-78
2022/03/13 00:19:26;;;;;;;12.95;8.77;;;;;;;10.27;61.01;101462.75;5052708;28;20025;-79
2022/03/13 00:21:53;;;;;;;13.88;8.88;;;;;;;10.27;60.85;101463.63;5044924;28;20170;-79
2022/03/13 00:24:22;;;;;;;13.90;8.93;;;;;;;10.27;61.08;101463.63;5045748;28;20021;-79
2022/03/13 00:26:51;;;;;;;12.57;7.82;;;;;;;10.29;61.05;101455.00;5045251;28;20275;-84
2022/03/13 00:29:17;;;;;;;22.27;12.77;;;;;;;10.29;61.32;101458.47;5048235;28;20027;-84
2022/03/13 00:31:42;;;;;;;14.00;8.18;;;;;;;10.29;60.87;101457.59;5045329;28;20017;-85
2022/03/13 00:34:08;;;;;;;13.43;8.63;;;;;;;10.29;61.18;101452.41;5044159;28;20184;-84
2022/03/13 00:36:34;;;;;;;11.55;8.07;;;;;;;10.27;61.68;101445.41;5048675;28;20009;-84
2022/03/13 00:38:59;;;;;;;15.00;9.40;;;;;;;10.29;60.83;101444.59;5044012;28;20013;-85
2022/03/13 00:41:24;;;;;;;13.65;8.73;;;;;;;10.27;61.28;101432.38;5044436;28;20056;-84
2022/03/13 00:43:50;;;;;;;14.10;9.10;;;;;;;10.26;61.21;101432.34;5043854;28;20017;-84
2022/03/13 00:46:15;;;;;;;13.80;9.20;;;;;;;10.22;61.29;101441.75;5047843;28;20084;-84
2022/03/13 00:48:41;;;;;;;14.93;9.25;;;;;;;10.19;61.80;101430.34;5043013;28;20264;-84
2022/03/13 00:51:07;;;;;;;15.75;9.50;;;;;;;10.15;61.47;101433.69;5045185;28;20022;-84
2022/03/13 00:53:32;;;;;;;16.70;10.73;;;;;;;10.11;61.60;101437.91;5042390;28;20032;-83
2022/03/13 00:55:57;;;;;;;16.17;10.32;;;;;;;10.09;61.31;101439.56;5047573;28;20076;-84
2022/03/13 00:58:23;;;;;;;15.68;10.07;;;;;;;10.06;61.19;101431.63;5043815;28;20095;-84
2022/03/13 01:00:48;;;;;;;16.30;10.63;;;;;;;10.04;61.50;101430.72;5048318;28;20017;-85
2022/03/13 01:03:36;;;;;;;17.23;11.20;;;;;;;10.03;60.92;101421.13;5045287;28;20096;-85
2022/03/13 01:06:03;;;;;;;15.90;10.52;;;;;;;9.99;61.57;101421.84;5045972;28;20025;-84
2022/03/13 01:08:28;;;;;;;18.50;11.50;;;;;;;9.96;61.87;101419.13;5044758;28;20096;-83
2022/03/13 01:10:54;;;;;;;16.85;11.18;;;;;;;9.93;61.65;101422.50;5043499;28;20067;-84
2022/03/13 01:13:20;;;;;;;15.88;10.77;;;;;;;9.91;62.01;101425.06;5044567;28;20275;-84
2022/03/13 01:15:47;;;;;;;18.33;10.70;;;;;;;9.90;62.21;101409.38;5044279;28;20078;-85
2022/03/13 01:18:13;;;;;;;17.10;10.95;;;;;;;9.86;62.37;101416.22;5043906;28;20040;-84
2022/03/13 01:20:38;;;;;;;18.40;11.10;;;;;;;9.83;62.41;101407.41;5046050;28;20021;-85
2022/03/13 01:23:04;;;;;;;18.80;11.13;;;;;;;9.79;62.67;101403.81;5048290;28;20044;-85
2022/03/13 01:25:29;;;;;;;16.35;11.35;;;;;;;9.75;62.78;101401.94;5043873;28;20048;-85
2022/03/13 01:27:54;;;;;;;15.95;10.50;;;;;;;9.70;62.80;101401.75;5045524;28;20049;-85
2022/03/13 01:30:20;;;;;;;16.75;10.68;;;;;;;9.67;62.75;101400.75;5045071;28;20388;-85
2022/03/13 01:32:52;;;;;;;16.33;10.75;;;;;;;9.64;62.65;101393.72;5051394;28;20025;-85
2022/03/13 01:35:22;;;;;;;16.17;10.38;;;;;;;9.61;62.99;101393.59;5042131;28;20029;-84
2022/03/13 01:37:48;;;;;;;17.23;10.52;;;;;;;9.58;62.99;101399.56;5041961;28;20270;-78
2022/03/13 01:40:19;;;;;;;16.95;10.50;;;;;;;9.53;63.15;101387.22;5044954;28;20168;-78
2022/03/13 01:42:44;;;;;;;17.58;10.95;;;;;;;9.49;63.40;101386.25;5043691;28;20018;-78
2022/03/13 01:45:14;;;;;;;17.30;10.70;;;;;;;9.47;63.25;101380.13;5043099;28;20124;-78
2022/03/13 01:47:39;;;;;;;16.63;10.85;;;;;;;9.42;63.87;101372.97;5042813;28;20084;-78
2022/03/13 01:50:09;;;;;;;17.95;10.48;;;;;;;9.39;63.56;101365.94;5048294;28;20020;-78
2022/03/13 01:52:35;;;;;;;16.02;10.13;;;;;;;9.34;63.93;101362.25;5039643;28;20295;-78
2022/03/13 01:55:00;;;;;;;16.83;10.52;;;;;;;9.30;64.11;101355.16;5042154;28;20036;-78
2022/03/13 01:57:25;;;;;;;14.63;10.18;;;;;;;9.25;64.52;101361.94;5040528;28;20017;-78
2022/03/13 01:59:54;;;;;;;17.08;10.55;;;;;;;9.22;64.66;101376.59;5050006;28;20033;-78
2022/03/13 02:02:21;;;;;;;16.50;10.60;;;;;;;9.15;64.79;101365.91;5043515;28;20080;-78
2022/03/13 02:04:51;;;;;;;15.20;9.90;;;;;;;9.14;64.98;101370.22;5043394;28;20025;-79
2022/03/13 02:07:16;;;;;;;16.35;10.05;;;;;;;9.11;65.13;101364.91;5041863;28;20086;-84
2022/03/13 02:09:42;;;;;;;15.30;9.35;;;;;;;9.11;65.16;101377.91;5043565;28;20025;-85
2022/03/13 02:12:09;;;;;;;14.95;9.40;;;;;;;9.09;65.40;101369.16;5047252;28;20029;-85
2022/03/13 02:14:35;;;;;;;13.75;9.27;;;;;;;9.09;65.57;101365.66;5046426;28;20048;-85
2022/03/13 02:17:00;;;;;;;15.30;9.52;;;;;;;9.06;65.90;101361.22;5042565;28;20107;-84
2022/03/13 02:19:25;;;;;;;14.15;9.23;;;;;;;9.05;65.88;101359.47;5048053;28;20102;-84
2022/03/13 02:21:51;;;;;;;14.10;9.25;;;;;;;9.05;65.61;101349.06;5041775;28;20021;-84
2022/03/13 02:24:24;;;;;;;13.95;8.98;;;;;;;9.03;65.76;101350.72;5048271;28;20018;-85
2022/03/13 02:27:05;;;;;;;16.70;9.95;;;;;;;9.04;65.44;101358.59;5043055;28;20101;-85
2022/03/13 02:29:31;;;;;;;15.50;9.70;;;;;;;9.01;65.77;101361.06;5042020;28;20270;-84
2022/03/13 02:31:58;;;;;;;19.60;10.43;;;;;;;9.00;65.90;101366.22;5042310;28;20045;-85
2022/03/13 02:34:24;;;;;;;16.70;9.95;;;;;;;8.98;66.06;101367.84;5044786;28;20029;-84
2022/03/13 02:36:50;;;;;;;15.88;9.68;;;;;;;8.94;66.38;101360.78;5037271;28;20032;-78
2022/03/13 02:39:15;;;;;;;17.80;10.38;;;;;;;8.90;66.01;101366.69;5042773;28;20378;-77
2022/03/13 02:41:41;;;;;;;16.77;10.23;;;;;;;8.91;66.36;101363.22;5042820;28;20021;-77
2022/03/13 02:44:08;;;;;;;16.50;10.27;;;;;;;8.92;66.41;101362.41;5043721;28;20359;-77
2022/03/13 02:46:45;;;;;;;16.65;11.00;;;;;;;8.94;66.38;101360.78;5041851;28;20336;-78
2022/03/13 02:49:19;;;;;;;15.25;10.63;;;;;;;8.92;66.58;101347.72;5042996;28;20016;-77
2022/03/13 02:51:46;;;;;;;17.27;10.68;;;;;;;8.93;66.26;101354.69;5044382;28;20021;-77
2022/03/13 02:54:13;;;;;;;18.40;10.73;;;;;;;8.95;66.39;101357.34;5040373;28;20025;-77
2022/03/13 02:56:38;;;;;;;17.15;11.40;;;;;;;8.94;66.71;101340.00;5049132;28;20031;-77
2022/03/13 02:59:04;;;;;;;18.25;11.65;;;;;;;8.96;66.83;101349.59;5042739;28;20021;-77
2022/03/13 03:01:29;;;;;;;19.27;12.10;;;;;;;8.96;67.07;101348.72;5047147;28;20045;-77
2022/03/13 03:04:01;;;;;;;19.63;12.63;;;;;;;8.95;66.87;101352.13;5040896;28;20139;-77
2022/03/13 03:06:31;;;;;;;19.50;12.10;;;;;;;8.95;67.54;101352.13;5042867;28;20021;-85
2022/03/13 03:08:57;;;;;;;19.88;12.52;;;;;;;8.94;67.66;101334.78;5046448;28;20041;-84
2022/03/13 03:11:22;;;;;;;19.15;12.05;;;;;;;8.93;67.61;101340.81;5043123;28;20010;-84
2022/03/13 03:13:48;;;;;;;18.30;11.77;;;;;;;8.92;67.84;101342.53;5042895;28;20033;-84
2022/03/13 03:16:14;;;;;;;19.70;12.57;;;;;;;8.88;68.27;101336.31;5041919;28;20254;-84
2022/03/13 03:18:39;;;;;;;20.05;12.25;;;;;;;8.87;68.11;101336.25;5044185;28;20029;-84
2022/03/13 03:21:05;;;;;;;17.45;11.95;;;;;;;8.83;68.40;101337.84;5042505;28;20044;-84
2022/03/13 03:23:30;;;;;;;18.80;12.63;;;;;;;8.83;68.47;101331.78;5043203;28;20021;-84
2022/03/13 03:25:55;;;;;;;18.02;12.38;;;;;;;8.81;69.38;101338.63;5037477;28;20030;-84
2022/03/13 03:28:22;;;;;;;18.30;12.30;;;;;;;8.79;68.89;101335.97;5044642;28;20025;-82
2022/03/13 03:30:48;;;;;;;19.90;12.95;;;;;;;8.76;69.60;101330.66;5050512;28;20037;-83
2022/03/13 03:33:13;;;;;;;19.42;12.60;;;;;;;8.77;69.75;101332.41;5047689;28;20080;-83
2022/03/13 03:35:39;;;;;;;19.85;12.90;;;;;;;8.76;70.00;101327.16;5045944;28;20020;-83
2022/03/13 03:38:04;;;;;;;22.20;13.77;;;;;;;8.73;70.07;101327.91;5046267;28;20052;-83
2022/03/13 03:40:31;;;;;;;19.33;12.63;;;;;;;8.72;70.30;101323.56;5045678;28;20067;-83
2022/03/13 03:42:59;;;;;;;20.80;13.07;;;;;;;8.69;70.43;101321.72;5049442;28;20018;-83
2022/03/13 03:45:25;;;;;;;21.45;13.50;;;;;;;8.70;70.17;101333.00;5048200;28;20048;-83
2022/03/13 03:47:50;;;;;;;21.27;13.98;;;;;;;8.67;69.96;101328.56;5044952;28;20043;-83
2022/03/13 03:50:17;;;;;;;20.35;13.95;;;;;;;8.66;70.05;101334.59;5044640;28;20287;-83
2022/03/13 03:52:44;;;;;;;21.88;13.75;;;;;;;8.64;69.85;101335.38;5038858;28;20033;-84
2022/03/13 03:55:09;;;;;;;23.50;14.35;;;;;;;8.61;70.26;101330.94;5042711;28;20029;-83
2022/03/13 03:57:34;;;;;;;21.40;14.23;;;;;;;8.62;70.23;101326.63;5045770;28;20179;-83
2022/03/13 04:00:00;;;;;;;23.83;15.20;;;;;;;8.61;70.45;101333.53;5046416;28;20075;-83
2022/03/13 04:02:25;;;;;;;23.02;14.80;;;;;;;8.60;70.22;101323.06;5051977;28;20022;-83
2022/03/13 04:04:50;;;;;;;24.45;15.30;;;;;;;8.61;70.50;101332.66;5043158;28;20083;-83
2022/03/13 04:07:17;;;;;;;23.73;14.90;;;;;;;8.59;70.11;101324.81;5045354;28;20029;-78
2022/03/13 04:09:42;;;;;;;23.23;14.77;;;;;;;8.56;70.09;101322.09;5041276;28;20057;-77
2022/03/13 04:12:08;;;;;;;22.52;14.95;;;;;;;8.54;69.91;101326.31;5047704;28;20033;-77
2022/03/13 04:14:37;;;;;;;22.92;14.90;;;;;;;8.52;70.18;101321.06;5044031;28;20013;-77
2022/03/13 04:17:04;;;;;;;23.55;15.77;;;;;;;8.53;70.00;101322.84;5043856;28;20116;-77
2022/03/13 04:19:31;;;;;;;24.77;15.47;;;;;;;8.55;69.71;101319.44;5046923;28;20361;-77
2022/03/13 04:21:57;;;;;;;24.88;16.05;;;;;;;8.52;69.32;101310.69;5044234;28;20034;-78
2022/03/13 04:24:22;;;;;;;23.35;15.60;;;;;;;8.51;68.45;101308.91;5046520;28;20025;-78
2022/03/13 04:26:49;;;;;;;25.67;16.17;;;;;;;8.55;68.68;101315.09;5044821;28;20326;-78
2022/03/13 04:29:16;;;;;;;25.55;15.73;;;;;;;8.52;68.87;101315.88;5044129;28;20041;-78
2022/03/13 04:31:43;;;;;;;24.02;15.77;;;;;;;8.55;68.33;101325.50;5044723;28;20025;-78
2022/03/13 04:34:08;;;;;;;26.15;15.50;;;;;;;8.54;67.56;101321.13;5044275;28;20055;-78
2022/03/13 04:36:35;;;;;;;23.38;15.23;;;;;;;8.55;67.26;101315.09;5039428;28;20048;-84
2022/03/13 04:39:01;;;;;;;27.42;16.85;;;;;;;8.56;68.17;101326.38;5033952;28;20023;-84
2022/03/13 04:41:27;;;;;;;25.17;16.05;;;;;;;8.52;68.68;101315.88;5047496;28;20338;-83
2022/03/13 04:43:53;;;;;;;28.23;16.48;;;;;;;8.50;68.46;101322.72;5048101;28;20032;-82
2022/03/13 04:46:19;;;;;;;26.23;16.60;;;;;;;8.48;68.89;101318.28;5047561;28;20029;-81
2022/03/13 04:48:45;;;;;;;26.08;16.50;;;;;;;8.45;70.73;101318.16;5041431;28;20215;-82
2022/03/13 04:51:11;;;;;;;26.35;16.95;;;;;;;8.42;71.19;101320.63;5042297;28;20088;-83
2022/03/13 04:53:36;;;;;;;28.48;16.92;;;;;;;8.36;72.16;101311.75;5039572;28;20084;-82
2022/03/13 04:56:02;;;;;;;25.73;16.33;;;;;;;8.31;72.82;101315.88;5053628;28;20025;-82
2022/03/13 04:58:27;;;;;;;24.80;16.60;;;;;;;8.27;72.67;101313.06;5047683;28;20291;-82
2022/03/13 05:00:53;;;;;;;26.45;16.27;;;;;;;8.21;73.64;101316.31;5048965;28;20033;-83
2022/03/13 05:03:18;;;;;;;27.27;16.67;;;;;;;8.19;73.76;101316.25;5045615;28;20009;-83
2022/03/13 05:05:44;;;;;;;26.33;16.20;;;;;;;8.14;73.97;101316.88;5050716;28;20277;-83
2022/03/13 05:08:15;;;;;;;26.40;16.48;;;;;;;8.11;73.79;101303.78;5046405;28;20048;-82
2022/03/13 05:10:42;;;;;;;27.58;16.38;;;;;;;8.05;73.90;101309.59;5049548;28;20072;-82
2022/03/13 05:13:09;;;;;;;25.20;16.38;;;;;;;8.01;74.16;101308.59;5040234;28;20343;-81
2022/03/13 05:15:36;;;;;;;26.50;16.02;;;;;;;7.99;73.99;101304.16;5044328;28;20284;-83
2022/03/13 05:18:01;;;;;;;28.45;16.40;;;;;;;7.99;73.71;101304.16;5041900;28;20033;-82
2022/03/13 05:20:27;;;;;;;25.70;16.08;;;;;;;7.99;72.88;101301.56;5052641;28;20202;-81
2022/03/13 05:22:53;;;;;;;26.13;15.77;;;;;;;7.97;72.94;101305.81;5044457;28;20049;-82
2022/03/13 05:25:19;;;;;;;26.67;16.10;;;;;;;7.96;72.89;101298.84;5042861;28;20219;-82
2022/03/13 05:27:44;;;;;;;25.25;15.88;;;;;;;7.96;72.99;101301.44;5044578;28;20580;-82
2022/03/13 05:30:10;;;;;;;26.08;16.13;;;;;;;7.95;72.64;101304.84;5051305;28;20088;-82
2022/03/13 05:32:35;;;;;;;24.63;16.10;;;;;;;7.92;74.17;101295.25;5047882;28;20040;-82
2022/03/13 05:35:02;;;;;;;25.27;16.25;;;;;;;7.90;73.77;101302.06;5042530;28;20051;-82
2022/03/13 05:37:27;;;;;;;25.38;16.30;;;;;;;7.86;73.56;101304.47;5039145;28;20016;-77
2022/03/13 05:39:53;;;;;;;23.83;14.68;;;;;;;7.84;73.36;101302.69;5041369;28;20021;-77
2022/03/13 05:42:20;;;;;;;25.02;15.95;;;;;;;7.84;73.07;101309.59;5043257;28;20022;-77
2022/03/13 05:44:46;;;;;;;24.05;15.27;;;;;;;7.83;72.63;101303.53;5043639;28;20201;-76
2022/03/13 05:47:11;;;;;;;27.67;15.43;;;;;;;7.85;72.62;101308.78;5042078;28;20308;-77
2022/03/13 05:49:37;;;;;;;24.23;14.68;;;;;;;7.84;72.22;101305.28;5042214;28;20037;-77
2022/03/13 05:52:04;;;;;;;24.67;16.23;;;;;;;7.82;72.24;101313.81;5041580;28;20084;-77
2022/03/13 05:54:29;;;;;;;24.30;15.90;;;;;;;7.80;71.28;101310.28;5037948;28;20287;-76
2022/03/13 05:56:54;;;;;;;24.52;15.32;;;;;;;7.82;71.48;101319.00;5049189;28;20037;-77
2022/03/13 05:59:22;;;;;;;22.42;14.40;;;;;;;7.82;71.40;101317.31;5043937;28;20021;-77
2022/03/13 06:01:47;;;;;;;26.17;15.65;;;;;;;7.80;71.04;101311.16;5047459;28;20048;-77
2022/03/13 06:04:13;;;;;;;24.73;14.32;;;;;;;7.82;71.24;101321.59;5045534;28;20458;-76
2022/03/13 06:06:39;;;;;;;24.52;14.38;;;;;;;7.81;71.56;101314.66;5049383;28;20017;-77
2022/03/13 06:09:04;;;;;;;26.70;14.52;;;;;;;7.78;72.09;101307.63;5038492;28;20016;-77
2022/03/13 06:11:29;;;;;;;22.38;14.35;;;;;;;7.81;71.22;101312.06;5040734;28;20037;-77
2022/03/13 06:13:55;;;;;;;23.67;14.57;;;;;;;7.80;71.56;101318.94;5043243;28;20272;-76
2022/03/13 06:16:21;;;;;;;25.30;15.07;;;;;;;7.78;71.17;101317.13;5047253;28;20036;-77
2022/03/13 06:18:47;;;;;;;24.75;14.50;;;;;;;7.78;71.27;101319.72;5043389;28;20268;-77
2022/03/13 06:21:14;;;;;;;23.85;14.75;;;;;;;7.78;70.07;101314.53;5043083;28;20014;-77
2022/03/13 06:23:39;;;;;;;22.70;14.68;;;;;;;7.78;70.53;101312.81;5042406;28;20021;-76
2022/03/13 06:26:05;;;;;;;24.42;15.02;;;;;;;7.79;70.35;101314.59;5047041;28;20024;-77
2022/03/13 06:28:32;;;;;;;22.67;14.30;;;;;;;7.79;70.99;101321.47;5046263;28;20032;-77
2022/03/13 06:31:00;;;;;;;24.58;14.70;;;;;;;7.79;71.01;101322.38;5043036;28;20075;-77
2022/03/13 06:33:27;;;;;;;22.55;14.50;;;;;;;7.78;70.75;101325.78;5039526;28;20006;-77
2022/03/13 06:35:52;;;;;;;23.60;14.85;;;;;;;7.80;69.64;101318.06;5046925;28;20167;-77
2022/03/13 06:38:17;;;;;;;23.45;14.40;;;;;;;7.79;69.79;101319.78;5043110;28;20029;-82
2022/03/13 06:40:43;;;;;;;21.15;13.80;;;;;;;7.81;68.68;101323.31;5045541;28;20040;-82
2022/03/13 06:43:08;;;;;;;22.88;14.57;;;;;;;7.82;69.47;101317.31;5049680;28;20092;-82
2022/03/13 06:45:34;;;;;;;21.80;14.15;;;;;;;7.82;69.82;101322.50;5046154;28;20013;-82
2022/03/13 06:47:59;;;;;;;22.35;13.95;;;;;;;7.82;68.83;101319.91;5039974;28;20095;-82
2022/03/13 06:50:24;;;;;;;23.38;13.95;;;;;;;7.84;69.16;101317.38;5035298;28;20076;-83
2022/03/13 06:52:52;;;;;;;23.20;14.43;;;;;;;7.85;69.50;101313.97;5035134;28;20025;-82
2022/03/13 06:55:21;;;;;;;23.70;14.63;;;;;;;7.87;69.66;101316.63;5042427;28;20036;-82
2022/03/13 06:57:47;;;;;;;;;;;;;;;7.92;69.12;101321.22;5053460;28;20043;-82
2022/03/13 07:00:15;;;;;;;22.23;13.32;;;;;;;7.91;67.92;101318.53;5046839;28;19928;-82
2022/03/13 07:02:40;;;;;;;21.55;13.93;;;;;;;7.94;68.08;101326.47;5043069;28;20017;-82
2022/03/13 07:05:06;;;;;;;22.52;14.05;;;;;;;7.94;68.40;101324.75;5043288;28;20032;-82
2022/03/13 07:07:31;;;;;;;21.77;13.10;;;;;;;7.98;68.11;101323.13;5046000;28;20025;-77
2022/03/13 07:09:57;;;;;;;21.67;13.65;;;;;;;7.98;67.88;101316.25;5050106;28;20092;-76
2022/03/13 07:12:23;;;;;;;21.70;13.98;;;;;;;7.99;68.23;101318.03;5044239;28;20080;-77
2022/03/13 07:14:48;;;;;;;22.63;14.25;;;;;;;8.03;67.89;101315.56;5052753;28;20026;-76
2022/03/13 07:17:15;;;;;;;21.92;14.18;;;;;;;8.05;68.21;101319.09;5045888;28;20045;-77
2022/03/13 07:19:43;;;;;;;21.67;13.63;;;;;;;8.06;67.05;101326.94;5047032;28;20021;-77
2022/03/13 07:22:12;;;;;;;23.55;14.23;;;;;;;8.09;68.14;101315.81;5039796;28;20021;-77
2022/03/13 07:24:37;;;;;;;22.70;14.18;;;;;;;8.11;68.27;101320.25;5040759;28;20274;-76
2022/03/13 07:27:03;;;;;;;22.42;14.38;;;;;;;8.13;68.20;101316.00;5046846;28;20029;-77
2022/03/13 07:29:28;;;;;;;23.58;14.50;;;;;;;8.14;69.48;101309.09;5045388;28;20124;-76
2022/03/13 07:31:56;;;;;;;23.75;14.57;;;;;;;8.13;68.09;101313.41;5056587;28;20039;-76
2022/03/13 07:34:22;;;;;;;22.02;13.80;;;;;;;8.16;68.09;101310.94;5053196;28;20149;-77
2022/03/13 07:36:47;;;;;;;22.98;14.70;;;;;;;8.15;68.57;101309.19;5046519;28;20203;-77
2022/03/13 07:39:14;;;;;;;20.00;13.63;;;;;;;8.18;67.27;101317.09;5052703;28;20251;-77
2022/03/13 07:41:39;;;;;;;21.95;13.95;;;;;;;8.22;67.57;101314.63;5053989;28;20025;-77
2022/03/13 07:44:04;;;;;;;24.00;14.07;;;;;;;8.25;67.76;101313.00;5048100;28;20087;-77
2022/03/13 07:46:30;;;;;;;22.08;13.68;;;;;;;8.27;68.03;101305.28;5044737;28;20275;-77
2022/03/13 07:48:55;;;;;;;24.55;14.52;;;;;;;8.30;68.32;101310.63;5051536;28;20074;-77
2022/03/13 07:51:20;;;;;;;22.20;14.05;;;;;;;8.32;68.58;101309.84;5056032;28;20089;-77
2022/03/13 07:53:46;;;;;;;22.60;14.20;;;;;;;8.32;67.80;101302.06;5044524;28;20017;-77
2022/03/13 07:56:11;;;;;;;22.00;13.82;;;;;;;8.35;67.90;101309.09;5055997;28;20036;-76
2022/03/13 07:58:36;;;;;;;22.90;14.55;;;;;;;8.38;68.26;101311.81;5049267;28;20017;-77
2022/03/13 08:01:01;;;;;;;22.13;14.60;;;;;;;8.40;67.51;101312.75;5042314;28;20021;-77
2022/03/13 08:03:35;;;;;;;23.40;14.38;;;;;;;8.42;68.28;101308.50;5043200;28;20037;-77
2022/03/13 08:06:01;;;;;;;24.05;14.85;;;;;;;8.44;68.03;101314.66;5036975;28;20145;-76
2022/03/13 08:08:27;;;;;;;22.30;14.60;;;;;;;8.47;68.50;101311.31;5040883;28;20021;-77
2022/03/13 08:10:52;;;;;;;24.40;15.27;;;;;;;8.51;67.06;101314.09;5034392;28;20072;-78
2022/03/13 08:13:17;;;;;;;22.73;14.95;;;;;;;8.55;68.32;101309.03;5037824;28;20316;-77
2022/03/13 08:15:42;;;;;;;25.63;15.98;;;;;;;8.59;69.08;101310.91;5032250;28;20213;-78
2022/03/13 08:18:09;;;;;;;25.67;14.98;;;;;;;8.64;67.10;101311.97;5031235;28;20242;-78
2022/03/13 08:20:38;;;;;;;26.50;15.30;;;;;;;8.68;69.10;101311.28;5032020;28;20320;-75
2022/03/13 08:23:03;;;;;;;26.95;15.18;;;;;;;8.72;67.24;101302.78;5032923;28;20025;-75
2022/03/13 08:25:29;;;;;;;23.98;15.63;;;;;;;8.77;66.17;101303.84;5034296;28;20018;-75
2022/03/13 08:27:55;;;;;;;23.40;15.38;;;;;;;8.80;67.15;101301.34;5032042;28;20009;-75
2022/03/13 08:30:20;;;;;;;26.05;15.48;;;;;;;8.82;64.95;101293.59;5042771;28;20009;-75
2022/03/13 08:32:45;;;;;;;23.92;15.30;;;;;;;8.85;64.97;101310.22;5050120;28;20048;-75
2022/03/13 08:35:12;;;;;;;21.20;14.52;;;;;;;8.90;66.81;101301.72;5043983;28;20017;-75
2022/03/13 08:37:38;;;;;;;23.75;14.85;;;;;;;8.99;65.42;101307.25;5049801;28;20128;-75
2022/03/13 08:40:05;;;;;;;24.27;15.07;;;;;;;9.04;65.73;101303.13;5045597;28;20102;-75
2022/03/13 08:42:32;;;;;;;24.85;15.60;;;;;;;9.11;66.16;101302.53;5043287;28;20025;-76
2022/03/13 08:44:57;;;;;;;21.83;15.20;;;;;;;9.17;64.70;101307.06;5047238;28;20057;-75
2022/03/13 08:47:22;;;;;;;24.85;15.90;;;;;;;9.25;66.57;101305.59;5036225;28;20068;-80
2022/03/13 08:49:48;;;;;;;24.88;14.80;;;;;;;9.33;64.98;101311.97;5047198;28;20021;-81
2022/03/13 08:52:13;;;;;;;24.02;15.30;;;;;;;9.43;64.61;101301.88;5038055;28;20021;-80
2022/03/13 08:54:39;;;;;;;23.05;15.38;;;;;;;9.55;64.03;101300.63;5037865;28;20021;-81
2022/03/13 08:57:04;;;;;;;23.98;15.02;;;;;;;9.68;63.38;101301.06;5043823;28;20117;-80
2022/03/13 08:59:32;;;;;;;24.45;15.57;;;;;;;9.78;61.36;101294.47;5035789;28;20025;-80
2022/03/13 09:01:58;;;;;;;24.42;14.93;;;;;;;9.88;62.87;101294.81;5039757;28;20025;-80
2022/03/13 09:04:23;;;;;;;21.10;14.25;;;;;;;9.99;63.01;101291.66;5041416;28;20208;-81
2022/03/13 09:06:49;;;;;;;22.58;15.80;;;;;;;10.11;62.33;101286.88;5041560;28;20013;-80
2022/03/13 09:09:15;;;;;;;24.98;15.40;;;;;;;10.22;60.94;101288.09;5034464;28;20026;-80
2022/03/13 09:11:41;;;;;;;22.73;14.98;;;;;;;10.32;62.18;101291.00;5045119;28;20199;-83
2022/03/13 09:14:06;;;;;;;23.85;16.05;;;;;;;10.42;61.64;101287.88;5043306;28;20078;-80
2022/03/13 09:16:40;;;;;;;24.05;14.90;;;;;;;10.55;61.20;101290.03;5040549;28;20059;-75
2022/03/13 09:19:08;;;;;;;23.30;15.77;;;;;;;10.66;60.96;101281.66;5034414;28;20045;-75
2022/03/13 09:21:38;;;;;;;25.15;15.30;;;;;;;10.77;60.00;101286.34;5035978;28;20033;-75
2022/03/13 09:24:04;;;;;;;23.13;14.88;;;;;;;10.88;59.71;101278.84;5035312;28;20033;-75
2022/03/13 09:26:30;;;;;;;26.15;16.08;;;;;;;10.99;58.44;101288.72;5043497;28;20064;-75
2022/03/13 09:28:55;;;;;;;22.65;15.23;;;;;;;11.09;59.23;101288.13;5043758;28;20191;-75
2022/03/13 09:31:20;;;;;;;24.60;15.93;;;;;;;11.18;59.04;101277.06;5042735;28;20021;-77
2022/03/13 09:33:46;;;;;;;24.63;15.75;;;;;;;11.27;59.19;101273.00;5036268;28;20025;-76
2022/03/13 09:36:11;;;;;;;26.23;15.88;;;;;;;11.40;59.57;101278.56;5043746;28;20020;-76
2022/03/13 09:38:36;;;;;;;23.52;14.88;;;;;;;11.46;57.66;101282.22;5035494;28;20236;-76
2022/03/13 09:41:02;;;;;;;24.38;15.82;;;;;;;11.52;58.39;101276.28;5033410;28;20041;-75
2022/03/13 09:43:27;;;;;;;24.60;15.75;;;;;;;11.61;57.88;101283.47;5028378;28;20025;-76
2022/03/13 09:45:53;;;;;;;25.25;16.02;;;;;;;11.66;57.70;101285.34;5039988;28;20029;-76
2022/03/13 09:48:20;;;;;;;23.55;14.98;;;;;;;11.76;57.67;101283.88;5031771;28;20298;-80
2022/03/13 09:50:46;;;;;;;21.27;14.57;;;;;;;11.89;57.25;101289.38;5030356;28;20461;-79
2022/03/13 09:53:12;;;;;;;24.95;15.05;;;;;;;12.03;56.95;101281.94;5035345;28;20044;-80
2022/03/13 09:55:38;;;;;;;23.50;15.00;;;;;;;12.12;55.90;101279.56;5053534;28;20096;-79
2022/03/13 09:58:06;;;;;;;22.05;15.20;;;;;;;12.20;55.23;101285.84;5031641;28;20024;-82
2022/03/13 10:00:31;;;;;;;23.05;15.27;;;;;;;12.27;56.22;101277.31;5029084;28;20276;-80
2022/03/13 10:02:57;;;;;;;28.45;17.10;;;;;;;12.34;55.41;101283.59;5034424;28;20078;-80
2022/03/13 10:05:24;;;;;;;21.80;15.02;;;;;;;12.44;56.07;101285.56;5030151;28;20033;-80
2022/03/13 10:07:55;;;;;;;22.77;14.98;;;;;;;12.53;56.49;101277.91;5044914;28;20184;-79
2022/03/13 10:10:23;;;;;;;24.67;15.52;;;;;;;12.58;55.02;101266.69;5034527;28;20223;-79
2022/03/13 10:12:49;;;;;;;22.65;15.02;;;;;;;12.62;54.93;101263.28;5033642;28;20010;-80
2022/03/13 10:15:14;;;;;;;21.63;14.40;;;;;;;12.62;54.40;101263.28;5033887;28;20025;-80
2022/03/13 10:17:41;;;;;;;22.52;13.98;;;;;;;12.61;54.33;101270.22;5036560;28;20109;-75
2022/03/13 10:20:23;;;;;;;22.10;14.82;;;;;;;12.66;54.63;101260.78;5035045;28;20093;-76
2022/03/13 10:23:03;;;;;;;21.60;14.30;;;;;;;12.72;54.20;101259.16;5035395;28;20040;-75
2022/03/13 10:25:31;;;;;;;22.73;14.35;;;;;;;12.83;55.27;101255.00;5031673;28;20032;-75
2022/03/13 10:28:25;;;;;;;21.27;13.82;;;;;;;12.95;55.72;101242.19;5027275;28;20282;-75
2022/03/13 10:31:00;;;;;;;21.02;13.85;;;;;;;13.07;54.64;101248.53;5031382;28;20025;-76
2022/03/13 10:33:27;;;;;;;19.75;13.38;;;;;;;13.17;54.77;101240.88;5041727;28;20048;-76
2022/03/13 10:36:14;;;;;;;22.92;14.52;;;;;;;13.31;55.22;101240.25;5038674;28;20079;-76
2022/03/13 10:38:41;;;;;;;23.30;14.52;;;;;;;13.41;52.48;101239.59;5045235;28;20012;-76
2022/03/13 10:41:08;;;;;;;26.17;16.40;;;;;;;13.49;53.33;101234.53;5052729;28;20049;-76
2022/03/13 10:43:37;;;;;;;22.10;14.63;;;;;;;13.55;53.43;101234.63;5051025;28;20266;-76
2022/03/13 10:46:04;;;;;;;22.10;14.13;;;;;;;13.60;52.95;101235.59;5055382;28;20031;-76
2022/03/13 10:48:33;;;;;;;19.38;14.15;;;;;;;13.62;52.33;101233.00;5041260;28;20033;-76
2022/03/13 10:51:08;;;;;;;22.73;14.43;;;;;;;13.60;54.16;101232.06;5035658;28;20034;-76
2022/03/13 10:53:38;;;;;;;20.80;13.98;;;;;;;13.60;54.82;101230.34;5036818;28;20268;-76
2022/03/13 10:56:08;;;;;;;19.67;13.70;;;;;;;13.62;53.65;101233.00;5051085;28;20029;-77
2022/03/13 10:58:42;;;;;;;19.85;13.95;;;;;;;13.65;52.84;101231.31;5043787;28;20028;-81
2022/03/13 11:01:10;;;;;;;18.40;11.82;;;;;;;13.67;53.48;101239.19;5041903;28;20145;-81
2022/03/13 11:03:48;;;;;;;19.65;12.77;;;;;;;13.66;53.19;101230.47;5043231;28;20025;-80
2022/03/13 11:06:13;;;;;;;18.73;12.68;;;;;;;13.69;52.55;101225.25;5044999;28;20028;-80
2022/03/13 11:08:40;;;;;;;19.83;13.60;;;;;;;13.78;52.90;101221.91;5048613;28;20280;-81
2022/03/13 11:11:06;;;;;;;21.13;13.57;;;;;;;13.93;52.67;101231.75;5042135;28;20006;-81
2022/03/13 11:13:33;;;;;;;23.58;14.60;;;;;;;14.01;53.43;101218.78;5042242;28;20087;-81
2022/03/13 11:15:58;;;;;;;24.98;16.05;;;;;;;14.07;51.10;101206.66;5050343;28;20032;-81